createdAt,value
2022-07-29T00:02:10.800Z,17.25
2022-07-29T00:04:38.860Z,17.34
2022-07-29T00:07:05.344Z,17.37
2022-07-29T00:09:32.397Z,17.42
2022-07-29T00:12:01.243Z,17.23
2022-07-29T00:14:29.166Z,17.13
2022-07-29T00:16:56.455Z,17.07
2022-07-29T00:19:23.340Z,17.04
2022-07-29T00:21:49.867Z,17.08
2022-07-29T00:24:16.555Z,17.07
2022-07-29T00:26:43.479Z,16.79
2022-07-29T00:31:56.984Z,16.63
2022-07-29T00:34:41.781Z,16.40
2022-07-29T00:37:08.446Z,16.60
2022-07-29T00:39:34.836Z,16.79
2022-07-29T00:42:04.462Z,16.66
2022-07-29T00:44:31.145Z,16.30
2022-07-29T00:46:57.602Z,16.07
2022-07-29T00:49:24.581Z,16.00
2022-07-29T00:51:51.310Z,16.26
2022-07-29T00:54:18.635Z,16.51
2022-07-29T00:56:45.731Z,16.50
2022-07-29T00:59:12.100Z,16.51
2022-07-29T01:01:38.533Z,16.48
2022-07-29T01:04:07.605Z,16.54
2022-07-29T01:06:35.608Z,16.68
2022-07-29T01:09:02.402Z,16.45
2022-07-29T01:11:29.291Z,16.32
2022-07-29T01:13:56.451Z,16.17
2022-07-29T01:16:31.739Z,16.00
2022-07-29T01:19:07.850Z,16.06
2022-07-29T01:21:39.899Z,16.12
2022-07-29T01:24:35.383Z,16.07
2022-07-29T01:27:19.109Z,16.04
2022-07-29T01:29:54.980Z,15.95
2022-07-29T01:32:29.013Z,16.00
2022-07-29T01:35:04.939Z,16.04
2022-07-29T01:37:43.956Z,16.07
2022-07-29T01:40:21.125Z,15.99
2022-07-29T01:42:52.480Z,16.04
2022-07-29T01:45:36.169Z,16.19
2022-07-29T01:48:17.824Z,16.28
2022-07-29T01:50:57.262Z,16.22
2022-07-29T01:53:38.088Z,16.39
2022-07-29T01:56:07.334Z,16.23
2022-07-29T01:58:35.907Z,16.40
2022-07-29T02:01:04.184Z,16.39
2022-07-29T02:03:33.369Z,16.42
2022-07-29T02:06:02.972Z,16.47
2022-07-29T02:08:31.063Z,16.49
2022-07-29T02:10:59.399Z,16.52
2022-07-29T02:13:29.008Z,16.45
2022-07-29T02:15:58.112Z,16.44
2022-07-29T02:18:26.205Z,16.58
2022-07-29T02:20:57.732Z,16.72
2022-07-29T02:23:25.830Z,16.76
2022-07-29T02:25:56.172Z,16.71
2022-07-29T02:28:25.216Z,16.95
2022-07-29T02:30:53.192Z,16.99
2022-07-29T02:33:21.383Z,17.02
2022-07-29T02:35:49.469Z,17.06
2022-07-29T02:38:36.402Z,17.16
2022-07-29T02:41:13.187Z,17.13
2022-07-29T02:43:41.426Z,17.12
2022-07-29T02:46:28.282Z,17.15
2022-07-29T02:49:23.439Z,17.13
2022-07-29T02:52:03.036Z,16.95
2022-07-29T02:54:39.165Z,16.87
2022-07-29T02:57:16.153Z,16.83
2022-07-29T02:59:46.083Z,16.85
2022-07-29T03:02:15.880Z,16.76
2022-07-29T03:04:44.827Z,16.74
2022-07-29T03:07:16.377Z,16.59
2022-07-29T03:09:43.877Z,16.46
2022-07-29T03:12:11.937Z,16.42
2022-07-29T03:14:39.267Z,16.41
2022-07-29T03:17:06.738Z,16.32
2022-07-29T03:19:33.352Z,16.21
2022-07-29T03:22:00.987Z,16.11
2022-07-29T03:24:29.470Z,16.06
2022-07-29T03:26:57.604Z,16.03
2022-07-29T03:29:24.638Z,15.95
2022-07-29T03:31:51.161Z,15.94
2022-07-29T03:34:18.141Z,15.87
2022-07-29T03:36:45.227Z,15.87
2022-07-29T03:39:15.528Z,15.82
2022-07-29T03:41:45.764Z,15.80
2022-07-29T03:44:14.777Z,15.73
2022-07-29T03:46:44.642Z,15.75
2022-07-29T03:49:13.705Z,15.73
2022-07-29T03:51:40.351Z,15.77
2022-07-29T03:54:10.111Z,15.67
2022-07-29T03:56:40.701Z,15.60
2022-07-29T03:59:08.113Z,15.56
2022-07-29T04:01:35.600Z,15.18
2022-07-29T04:04:02.511Z,14.90
2022-07-29T04:06:29.363Z,14.44
2022-07-29T04:08:55.751Z,14.58
2022-07-29T04:11:22.176Z,14.79
2022-07-29T04:13:49.128Z,15.05
2022-07-29T04:16:15.541Z,15.17
2022-07-29T04:18:41.960Z,15.17
2022-07-29T04:21:08.375Z,14.79
2022-07-29T04:23:34.785Z,14.74
2022-07-29T04:26:02.012Z,14.68
2022-07-29T04:28:28.800Z,15.01
2022-07-29T04:30:55.596Z,15.14
2022-07-29T04:33:22.022Z,15.28
2022-07-29T04:35:52.678Z,15.31
2022-07-29T04:38:22.653Z,15.31
2022-07-29T04:40:49.604Z,15.31
2022-07-29T04:43:17.695Z,15.17
2022-07-29T04:45:49.999Z,15.12
2022-07-29T04:48:16.416Z,15.41
2022-07-29T04:50:42.999Z,15.78
2022-07-29T04:53:10.029Z,16.07
2022-07-29T04:55:37.357Z,16.02
2022-07-29T04:58:05.569Z,16.09
2022-07-29T05:00:33.483Z,16.33
2022-07-29T05:03:00.290Z,16.28
2022-07-29T05:05:26.778Z,16.62
2022-07-29T05:07:53.647Z,17.00
2022-07-29T05:10:20.027Z,17.34
2022-07-29T05:12:46.416Z,17.68
2022-07-29T05:15:13.262Z,17.70
2022-07-29T05:17:40.059Z,17.73
2022-07-29T05:20:07.966Z,17.93
2022-07-29T05:22:34.322Z,18.09
2022-07-29T05:25:05.536Z,18.43
2022-07-29T05:27:34.957Z,18.44
2022-07-29T05:30:01.379Z,18.46
2022-07-29T05:32:28.262Z,18.31
2022-07-29T05:34:54.621Z,18.17
2022-07-29T05:37:21.029Z,18.27
2022-07-29T05:39:49.042Z,18.75
2022-07-29T05:42:17.664Z,18.69
2022-07-29T05:44:44.066Z,18.58
2022-07-29T05:47:10.472Z,18.72
2022-07-29T05:49:37.301Z,18.97
2022-07-29T05:52:04.599Z,19.12
2022-07-29T05:54:31.547Z,19.18
2022-07-29T05:56:58.284Z,19.04
2022-07-29T05:59:29.884Z,19.06
2022-07-29T06:01:57.943Z,19.16
2022-07-29T06:04:25.020Z,18.83
2022-07-29T06:06:51.809Z,18.74
2022-07-29T06:09:18.272Z,18.55
2022-07-29T06:11:44.652Z,18.65
2022-07-29T06:14:11.492Z,18.68
2022-07-29T06:16:38.331Z,18.34
2022-07-29T06:19:05.312Z,18.41
2022-07-29T06:21:31.710Z,18.56
2022-07-29T06:23:58.589Z,18.70
2022-07-29T06:26:30.410Z,18.68
2022-07-29T06:28:58.027Z,18.74
2022-07-29T06:31:24.915Z,18.44
2022-07-29T06:33:51.453Z,18.24
2022-07-29T06:36:23.533Z,18.71
2022-07-29T06:38:52.221Z,18.84
2022-07-29T06:41:19.159Z,19.62
2022-07-29T06:43:52.104Z,18.92
2022-07-29T06:46:22.876Z,19.40
2022-07-29T06:48:50.846Z,19.91
2022-07-29T06:51:22.946Z,20.27
2022-07-29T06:53:59.794Z,20.17
2022-07-29T06:56:30.914Z,20.18
2022-07-29T06:58:57.623Z,19.76
2022-07-29T07:01:24.071Z,19.90
2022-07-29T07:03:50.580Z,19.30
2022-07-29T07:06:17.615Z,20.21
2022-07-29T07:08:44.005Z,19.79
2022-07-29T07:11:10.784Z,20.24
2022-07-29T07:13:37.232Z,20.71
2022-07-29T07:16:05.066Z,20.84
2022-07-29T07:18:31.977Z,21.25
2022-07-29T07:20:59.556Z,20.88
2022-07-29T07:23:25.944Z,21.48
2022-07-29T07:25:52.401Z,21.82
2022-07-29T07:28:19.339Z,21.80
2022-07-29T07:30:51.824Z,22.06
2022-07-29T07:33:18.276Z,22.81
2022-07-29T07:35:45.521Z,23.00
2022-07-29T07:38:12.120Z,21.53
2022-07-29T07:40:39.002Z,20.14
2022-07-29T07:43:06.069Z,20.39
2022-07-29T07:45:33.810Z,20.60
2022-07-29T07:48:00.411Z,20.10
2022-07-29T07:50:27.327Z,20.39
2022-07-29T07:52:58.408Z,21.32
2022-07-29T07:55:25.137Z,20.82
2022-07-29T07:57:52.129Z,20.79
2022-07-29T08:00:18.628Z,20.44
2022-07-29T08:02:46.071Z,20.76
2022-07-29T08:05:18.120Z,19.95
2022-07-29T08:07:47.918Z,19.95
2022-07-29T08:10:15.515Z,20.89
2022-07-29T08:12:42.786Z,20.71
2022-07-29T08:15:09.709Z,20.69
2022-07-29T08:17:36.116Z,20.92
2022-07-29T08:20:03.128Z,21.75
2022-07-29T08:22:29.627Z,21.50
2022-07-29T08:24:57.016Z,21.20
2022-07-29T08:27:42.838Z,21.63
2022-07-29T08:30:11.023Z,21.74
2022-07-29T08:32:53.317Z,20.75
2022-07-29T08:35:21.816Z,20.67
2022-07-29T08:37:49.124Z,20.51
2022-07-29T08:40:15.810Z,20.98
2022-07-29T08:42:42.799Z,22.78
2022-07-29T08:45:10.310Z,23.49
2022-07-29T08:47:43.177Z,22.62
2022-07-29T08:50:11.105Z,26.24
2022-07-29T08:52:39.904Z,25.51
2022-07-29T08:55:08.376Z,26.02
2022-07-29T08:57:37.258Z,26.07
2022-07-29T09:00:11.344Z,27.00
2022-07-29T09:02:46.734Z,25.75
2022-07-29T09:05:14.272Z,23.21
2022-07-29T09:07:43.995Z,24.25
2022-07-29T09:10:11.506Z,27.23
2022-07-29T09:12:38.366Z,27.66
2022-07-29T09:15:05.411Z,25.98
2022-07-29T09:17:47.162Z,25.76
2022-07-29T09:20:19.238Z,27.33
2022-07-29T09:22:50.333Z,25.19
2022-07-29T09:25:41.448Z,25.96
2022-07-29T09:28:12.954Z,24.80
2022-07-29T09:30:58.027Z,25.03
2022-07-29T09:33:40.092Z,25.13
2022-07-29T09:36:09.071Z,23.77
2022-07-29T09:38:37.518Z,25.37
2022-07-29T09:41:06.948Z,28.51
2022-07-29T09:43:35.179Z,28.07
2022-07-29T09:46:14.729Z,26.25
2022-07-29T09:48:42.296Z,25.27
2022-07-29T09:51:28.307Z,25.36
2022-07-29T09:54:27.797Z,24.59
2022-07-29T09:56:55.547Z,24.77
2022-07-29T09:59:25.206Z,25.68
2022-07-29T10:01:51.629Z,27.24
2022-07-29T10:04:18.879Z,25.59
2022-07-29T10:07:05.479Z,28.14
2022-07-29T10:09:33.319Z,27.30
2022-07-29T10:12:07.480Z,26.85
2022-07-29T10:14:36.710Z,26.26
2022-07-29T10:17:04.836Z,26.22
2022-07-29T10:19:32.899Z,27.29
2022-07-29T10:22:00.959Z,27.59
2022-07-29T10:24:29.123Z,26.81
2022-07-29T10:26:58.164Z,26.82
2022-07-29T10:29:26.036Z,28.53
2022-07-29T10:32:11.149Z,27.59
2022-07-29T10:34:55.671Z,27.25
2022-07-29T10:38:04.841Z,27.10
2022-07-29T10:41:20.273Z,27.31
2022-07-29T10:43:51.260Z,27.57
2022-07-29T10:46:19.378Z,28.03
2022-07-29T10:49:11.587Z,28.39
2022-07-29T10:52:03.627Z,26.42
2022-07-29T10:54:48.976Z,27.88
2022-07-29T10:57:15.932Z,27.56
2022-07-29T10:59:44.267Z,27.82
2022-07-29T11:02:41.780Z,28.82
2022-07-29T11:05:20.266Z,28.55
2022-07-29T11:08:19.994Z,29.67
2022-07-29T11:11:12.532Z,30.79
2022-07-29T11:13:48.931Z,27.35
2022-07-29T11:16:16.419Z,25.77
2022-07-29T11:19:11.454Z,25.50
2022-07-29T11:21:54.007Z,25.55
2022-07-29T11:24:30.095Z,25.90
2022-07-29T11:27:21.324Z,24.80
2022-07-29T11:30:02.085Z,25.42
2022-07-29T11:32:39.376Z,25.49
2022-07-29T11:35:18.834Z,24.38
2022-07-29T11:37:52.566Z,24.58
2022-07-29T11:40:34.311Z,24.39
2022-07-29T11:43:00.689Z,22.79
2022-07-29T11:45:45.565Z,22.45
2022-07-29T11:48:28.887Z,22.78
2022-07-29T11:51:12.102Z,23.04
2022-07-29T11:53:40.450Z,24.88
2022-07-29T11:56:09.634Z,25.28
2022-07-29T11:58:38.572Z,25.91
2022-07-29T12:01:06.104Z,25.80
2022-07-29T12:03:35.896Z,24.82
2022-07-29T12:06:13.788Z,24.75
2022-07-29T12:08:44.510Z,24.13
2022-07-29T12:11:20.418Z,24.07
2022-07-29T12:13:49.210Z,24.40
2022-07-29T12:16:15.857Z,24.88
2022-07-29T12:18:42.335Z,24.80
2022-07-29T12:21:09.693Z,24.67
2022-07-29T12:23:39.019Z,24.96
2022-07-29T12:26:10.707Z,25.02
2022-07-29T12:28:48.684Z,24.91
2022-07-29T12:31:43.922Z,24.08
2022-07-29T12:34:03.017Z,23.66
2022-07-29T12:36:29.465Z,23.60
2022-07-29T12:38:55.948Z,22.86
2022-07-29T12:41:23.196Z,21.50
2022-07-29T12:43:56.414Z,20.95
2022-07-29T12:46:23.738Z,21.58
2022-07-29T12:48:58.758Z,21.40
2022-07-29T12:51:36.171Z,21.49
2022-07-29T12:54:05.507Z,21.94
2022-07-29T12:56:47.316Z,22.21
2022-07-29T12:59:22.928Z,22.30
2022-07-29T13:01:52.332Z,22.48
2022-07-29T13:04:30.275Z,21.61
2022-07-29T13:07:04.590Z,22.94
2022-07-29T13:09:43.066Z,24.45
2022-07-29T13:12:11.376Z,24.95
2022-07-29T13:14:48.660Z,26.01
2022-07-29T13:17:28.228Z,25.41
2022-07-29T13:20:13.817Z,25.12
2022-07-29T13:22:42.019Z,23.79
2022-07-29T13:25:11.183Z,24.39
2022-07-29T13:27:39.295Z,23.61
2022-07-29T13:30:08.391Z,24.04
2022-07-29T13:32:35.835Z,22.72
2022-07-29T13:35:05.485Z,22.86
2022-07-29T13:37:34.935Z,22.29
2022-07-29T13:40:04.514Z,21.68
2022-07-29T13:42:32.919Z,21.20
2022-07-29T13:45:00.451Z,21.34
2022-07-29T13:47:32.426Z,21.40
2022-07-29T13:49:59.338Z,21.46
2022-07-29T13:52:26.063Z,21.53
2022-07-29T13:54:52.418Z,21.52
2022-07-29T13:57:20.076Z,20.76
2022-07-29T13:59:53.900Z,20.84
2022-07-29T14:02:21.457Z,20.77
2022-07-29T14:04:52.487Z,20.19
2022-07-29T14:07:19.088Z,19.36
2022-07-29T14:09:45.603Z,19.63
2022-07-29T14:12:12.773Z,19.80
2022-07-29T14:14:39.603Z,19.99
2022-07-29T14:17:07.287Z,18.91
2022-07-29T14:19:36.532Z,19.02
2022-07-29T14:22:04.979Z,18.88
2022-07-29T14:24:32.094Z,18.77
2022-07-29T14:26:58.932Z,18.89
2022-07-29T14:29:37.083Z,19.30
2022-07-29T14:32:11.310Z,19.44
2022-07-29T14:34:39.278Z,19.64
2022-07-29T14:37:07.046Z,19.73
2022-07-29T14:39:39.335Z,19.52
2022-07-29T14:42:09.364Z,18.76
2022-07-29T14:44:38.103Z,18.64
2022-07-29T14:47:07.537Z,18.27
2022-07-29T14:49:34.926Z,18.40
2022-07-29T14:52:01.528Z,18.41
2022-07-29T14:54:28.069Z,18.42
2022-07-29T14:56:58.600Z,18.37
2022-07-29T14:59:25.883Z,18.53
2022-07-29T15:01:52.473Z,18.74
2022-07-29T15:04:19.087Z,19.16
2022-07-29T15:06:45.743Z,19.44
2022-07-29T15:09:12.731Z,19.49
2022-07-29T15:11:39.349Z,19.55
2022-07-29T15:14:06.972Z,19.52
2022-07-29T15:16:36.181Z,19.59
2022-07-29T15:19:02.755Z,19.73
2022-07-29T15:21:29.139Z,19.67
2022-07-29T15:23:55.509Z,19.59
2022-07-29T15:26:22.273Z,19.60
2022-07-29T15:28:48.929Z,19.50
2022-07-29T15:31:15.583Z,18.91
2022-07-29T15:33:42.394Z,18.76
2022-07-29T15:36:09.143Z,18.93
2022-07-29T15:38:35.522Z,18.44
2022-07-29T15:41:08.488Z,18.17
2022-07-29T15:43:36.077Z,18.29
2022-07-29T15:46:21.920Z,17.98
2022-07-29T15:48:48.454Z,18.14
2022-07-29T15:51:15.160Z,18.46
2022-07-29T15:53:41.981Z,18.56
2022-07-29T15:56:08.397Z,18.52
2022-07-29T15:58:35.155Z,18.57
2022-07-29T16:01:02.128Z,18.66
2022-07-29T16:03:28.803Z,18.68
2022-07-29T16:05:55.555Z,18.26
2022-07-29T16:08:21.915Z,17.95
2022-07-29T16:10:48.468Z,18.12
2022-07-29T16:13:17.795Z,18.41
2022-07-29T16:15:45.742Z,18.57
2022-07-29T16:18:30.339Z,18.65
2022-07-29T16:20:57.164Z,18.40
2022-07-29T16:23:24.582Z,18.22
2022-07-29T16:25:59.696Z,17.99
2022-07-29T16:28:27.595Z,17.88
2022-07-29T16:30:54.592Z,17.76
2022-07-29T16:33:20.966Z,17.55
2022-07-29T16:35:47.355Z,17.43
2022-07-29T16:38:14.036Z,17.66
2022-07-29T16:40:40.790Z,17.80
2022-07-29T16:43:07.380Z,17.70
2022-07-29T16:45:45.264Z,17.80
2022-07-29T16:48:13.797Z,17.84
2022-07-29T16:50:41.309Z,17.79
2022-07-29T16:53:10.204Z,17.86
2022-07-29T16:55:37.063Z,17.73
2022-07-29T16:58:03.522Z,17.63
2022-07-29T17:00:30.023Z,17.76
2022-07-29T17:02:56.457Z,17.78
2022-07-29T17:05:22.844Z,17.89
2022-07-29T17:07:50.247Z,17.80
2022-07-29T17:10:17.175Z,17.83
2022-07-29T17:12:43.716Z,17.67
2022-07-29T17:15:12.139Z,17.79
2022-07-29T17:17:55.063Z,17.68
2022-07-29T17:20:23.703Z,17.75
2022-07-29T17:22:50.123Z,17.66
2022-07-29T17:25:20.815Z,17.64
2022-07-29T17:27:49.968Z,17.69
2022-07-29T17:30:16.833Z,17.45
2022-07-29T17:32:43.235Z,17.38
2022-07-29T17:35:36.540Z,17.51
2022-07-29T17:38:02.919Z,17.59
2022-07-29T17:40:29.331Z,17.61
2022-07-29T17:42:56.084Z,17.56
2022-07-29T17:45:22.427Z,17.54
2022-07-29T17:47:48.779Z,17.52
2022-07-29T17:50:15.526Z,17.61
2022-07-29T17:52:41.984Z,17.57
2022-07-29T17:55:10.200Z,17.57
2022-07-29T17:57:37.129Z,17.53
2022-07-29T18:00:05.375Z,17.46
2022-07-29T18:02:37.935Z,17.35
2022-07-29T18:05:04.977Z,17.43
2022-07-29T18:07:31.509Z,17.37
2022-07-29T18:10:00.613Z,17.32
2022-07-29T18:12:27.340Z,17.22
2022-07-29T18:14:53.708Z,17.27
2022-07-29T18:17:20.381Z,17.23
2022-07-29T18:19:48.087Z,17.32
2022-07-29T18:22:15.074Z,17.38
2022-07-29T18:24:42.719Z,17.19
2022-07-29T18:27:09.142Z,17.17
2022-07-29T18:29:35.611Z,17.16
2022-07-29T18:32:02.191Z,17.13
2022-07-29T18:34:29.349Z,17.04
2022-07-29T18:36:56.364Z,17.20
2022-07-29T18:39:23.068Z,17.06
2022-07-29T18:41:51.630Z,17.14
2022-07-29T18:44:21.721Z,17.11
2022-07-29T18:46:49.416Z,17.15
2022-07-29T18:49:16.287Z,17.10
2022-07-29T18:51:42.995Z,17.03
2022-07-29T18:54:10.416Z,17.17
2022-07-29T18:56:37.672Z,17.27
2022-07-29T18:59:04.609Z,17.18
2022-07-29T19:01:31.872Z,17.23
2022-07-29T19:03:58.957Z,17.16
2022-07-29T19:06:26.017Z,17.07
2022-07-29T19:08:53.257Z,17.08
2022-07-29T19:11:19.674Z,17.05
2022-07-29T19:13:46.080Z,17.03
2022-07-29T19:16:14.464Z,17.03
2022-07-29T19:18:43.007Z,17.02
2022-07-29T19:21:09.804Z,17.06
2022-07-29T19:24:01.490Z,17.15
2022-07-29T19:26:23.389Z,17.13
2022-07-29T19:28:53.338Z,17.16
2022-07-29T19:31:19.772Z,17.16
2022-07-29T19:33:46.606Z,17.03
2022-07-29T19:36:12.963Z,17.08
2022-07-29T19:38:39.484Z,17.07
2022-07-29T19:41:06.573Z,17.10
2022-07-29T19:43:51.297Z,17.18
2022-07-29T19:46:20.152Z,17.16
2022-07-29T19:48:46.596Z,17.14
2022-07-29T19:51:13.435Z,17.04
2022-07-29T19:53:39.853Z,17.04
2022-07-29T19:56:08.761Z,17.16
2022-07-29T19:58:36.088Z,17.30
2022-07-29T20:01:03.067Z,17.31
2022-07-29T20:03:39.537Z,17.61
2022-07-29T20:06:06.164Z,17.56
2022-07-29T20:08:33.096Z,17.46
2022-07-29T20:10:59.456Z,17.44
2022-07-29T20:13:26.179Z,17.35
2022-07-29T20:15:52.607Z,17.03
2022-07-29T20:18:19.007Z,17.13
2022-07-29T20:20:45.937Z,17.15
2022-07-29T20:23:12.301Z,17.11
2022-07-29T20:25:39.202Z,17.18
2022-07-29T20:28:05.999Z,17.32
2022-07-29T20:30:32.447Z,17.22
2022-07-29T20:32:59.379Z,17.15
2022-07-29T20:35:28.111Z,17.14
2022-07-29T20:37:56.613Z,17.20
2022-07-29T20:40:27.067Z,17.21
2022-07-29T20:42:55.093Z,17.10
2022-07-29T20:45:23.369Z,17.20
2022-07-29T20:47:51.576Z,17.18
2022-07-29T20:50:19.416Z,17.20
2022-07-29T20:52:45.956Z,17.17
2022-07-29T20:55:12.535Z,17.02
2022-07-29T20:57:40.070Z,17.00
2022-07-29T21:00:08.400Z,17.01
2022-07-29T21:02:34.857Z,17.01
2022-07-29T21:05:01.815Z,17.02
2022-07-29T21:07:28.533Z,17.03
2022-07-29T21:09:54.900Z,16.96
2022-07-29T21:12:21.286Z,16.92
2022-07-29T21:14:48.393Z,16.88
2022-07-29T21:17:16.210Z,16.90
2022-07-29T21:19:43.055Z,16.86
2022-07-29T21:22:10.139Z,16.81
2022-07-29T21:24:36.683Z,16.72
2022-07-29T21:27:22.542Z,16.67
2022-07-29T21:29:49.758Z,16.70
2022-07-29T21:32:28.439Z,16.79
2022-07-29T21:34:57.553Z,16.90
2022-07-29T21:37:24.052Z,16.93
2022-07-29T21:39:50.499Z,16.91
2022-07-29T21:42:17.271Z,16.98
2022-07-29T21:44:43.764Z,16.98
2022-07-29T21:47:11.555Z,16.90
2022-07-29T21:49:38.512Z,16.86
2022-07-29T21:52:05.709Z,17.02
2022-07-29T21:54:34.548Z,16.77
2022-07-29T21:57:01.433Z,16.80
2022-07-29T21:59:27.879Z,16.85
2022-07-29T22:01:54.703Z,16.94
2022-07-29T22:04:22.107Z,17.12
2022-07-29T22:06:48.576Z,17.24
2022-07-29T22:09:15.516Z,17.28
2022-07-29T22:11:42.380Z,17.20
2022-07-29T22:14:09.311Z,17.12
2022-07-29T22:16:35.821Z,16.90
2022-07-29T22:19:03.704Z,16.96
2022-07-29T22:21:31.147Z,17.10
2022-07-29T22:23:58.086Z,16.90
2022-07-29T22:26:24.488Z,16.79
2022-07-29T22:28:51.299Z,16.67
2022-07-29T22:31:18.459Z,16.54
2022-07-29T22:33:44.908Z,16.50
2022-07-29T22:36:11.487Z,16.36
2022-07-29T22:38:38.059Z,16.20
2022-07-29T22:41:04.461Z,16.31
2022-07-29T22:43:30.821Z,16.37
2022-07-29T22:45:57.220Z,16.26
2022-07-29T22:48:23.630Z,16.24
2022-07-29T22:50:49.966Z,16.23
2022-07-29T22:53:16.898Z,16.25
2022-07-29T22:55:45.043Z,16.14
2022-07-29T22:58:11.445Z,16.10
2022-07-29T23:00:38.291Z,16.16
2022-07-29T23:03:04.636Z,16.13
2022-07-29T23:05:31.130Z,16.10
2022-07-29T23:07:57.979Z,16.06
2022-07-29T23:10:24.511Z,15.96
2022-07-29T23:12:50.864Z,15.95
2022-07-29T23:15:18.184Z,15.89
2022-07-29T23:17:44.656Z,15.80
2022-07-29T23:20:11.264Z,15.81
2022-07-29T23:22:41.410Z,15.81
2022-07-29T23:25:08.203Z,15.78
2022-07-29T23:27:34.567Z,15.75
2022-07-29T23:30:01.403Z,15.61
2022-07-29T23:32:27.922Z,15.63
2022-07-29T23:34:54.304Z,15.58
2022-07-29T23:37:20.996Z,15.54
2022-07-29T23:39:48.051Z,15.57
2022-07-29T23:42:14.466Z,15.51
2022-07-29T23:44:40.823Z,15.48
2022-07-29T23:47:07.577Z,15.44
2022-07-29T23:49:34.495Z,15.39
2022-07-29T23:52:00.852Z,15.39
2022-07-29T23:54:27.642Z,15.41
2022-07-29T23:56:54.010Z,15.32
2022-07-29T23:59:20.448Z,15.27
